createdAt,value
2022-11-22T00:00:14.498Z,0
2022-11-22T00:01:15.112Z,0
2022-11-22T00:02:15.762Z,0
2022-11-22T00:03:16.344Z,0
2022-11-22T00:04:16.937Z,0
2022-11-22T00:05:17.527Z,0
2022-11-22T00:06:18.121Z,0
2022-11-22T00:07:18.759Z,0
2022-11-22T00:08:19.321Z,0
2022-11-22T00:09:19.931Z,0
2022-11-22T00:10:20.528Z,0
2022-11-22T00:11:21.121Z,0
2022-11-22T00:12:21.714Z,0
2022-11-22T00:13:22.311Z,0
2022-11-22T00:14:22.903Z,0
2022-11-22T00:15:23.499Z,0
2022-11-22T00:16:24.095Z,0
2022-11-22T00:17:24.686Z,0
2022-11-22T00:18:25.281Z,0
2022-11-22T00:19:25.877Z,0
2022-11-22T00:20:26.474Z,0
2022-11-22T00:21:27.069Z,0
2022-11-22T00:22:27.658Z,0
2022-11-22T00:23:28.252Z,0
2022-11-22T00:24:28.868Z,0
2022-11-22T00:25:29.463Z,0
2022-11-22T00:26:30.056Z,0
2022-11-22T00:27:30.653Z,0
2022-11-22T00:28:31.245Z,0
2022-11-22T00:29:31.921Z,0
2022-11-22T00:30:32.475Z,0
2022-11-22T00:31:33.059Z,0
2022-11-22T00:32:33.655Z,0
2022-11-22T00:33:34.247Z,0
2022-11-22T00:34:34.839Z,0
2022-11-22T00:35:35.434Z,0
2022-11-22T00:36:36.026Z,0
2022-11-22T00:37:36.621Z,0
2022-11-22T00:38:37.214Z,0
2022-11-22T00:39:37.810Z,0
2022-11-22T00:40:38.403Z,0
2022-11-22T00:41:38.999Z,0
2022-11-22T00:42:39.595Z,0
2022-11-22T00:43:40.205Z,0
2022-11-22T00:44:40.796Z,0
2022-11-22T00:45:41.392Z,0
2022-11-22T00:46:41.983Z,0
2022-11-22T00:47:42.578Z,0
2022-11-22T00:48:43.170Z,0
2022-11-22T00:49:43.766Z,0
2022-11-22T00:50:44.358Z,0
2022-11-22T00:51:44.954Z,0
2022-11-22T00:52:45.566Z,0
2022-11-22T00:53:46.178Z,0
2022-11-22T00:54:51.489Z,0
2022-11-22T00:55:47.381Z,0
2022-11-22T00:56:47.973Z,0
2022-11-22T00:57:48.568Z,0
2022-11-22T00:58:49.160Z,0
2022-11-22T00:59:49.755Z,0
2022-11-22T01:00:55.026Z,0
2022-11-22T01:01:50.961Z,0
2022-11-22T01:02:51.551Z,0
2022-11-22T01:03:52.148Z,0
2022-11-22T01:04:52.737Z,0
2022-11-22T01:05:53.331Z,0
2022-11-22T01:06:53.934Z,0
2022-11-22T01:07:54.539Z,0
2022-11-22T01:08:55.133Z,0
2022-11-22T01:09:55.729Z,0
2022-11-22T01:10:56.346Z,0
2022-11-22T01:11:56.939Z,0
2022-11-22T01:12:57.534Z,0
2022-11-22T01:13:58.129Z,0
2022-11-22T01:14:58.721Z,0
2022-11-22T01:15:59.339Z,0
2022-11-22T01:16:59.930Z,0
2022-11-22T01:18:00.521Z,0
2022-11-22T01:19:01.117Z,0
2022-11-22T01:20:01.711Z,0
2022-11-22T01:21:02.306Z,0
2022-11-22T01:22:02.899Z,0
2022-11-22T01:23:03.491Z,0
2022-11-22T01:24:04.083Z,0
2022-11-22T01:25:04.680Z,0
2022-11-22T01:26:05.272Z,0
2022-11-22T01:27:05.863Z,0
2022-11-22T01:28:06.458Z,0
2022-11-22T01:29:07.052Z,0
2022-11-22T01:30:07.652Z,0
2022-11-22T01:31:08.260Z,0
2022-11-22T01:32:08.873Z,0
2022-11-22T01:33:09.467Z,0
2022-11-22T01:34:10.058Z,0
2022-11-22T01:35:10.859Z,0
2022-11-22T01:36:11.419Z,0
2022-11-22T01:37:12.015Z,0
2022-11-22T01:38:12.607Z,0
2022-11-22T01:39:13.218Z,0
2022-11-22T01:40:13.811Z,0
2022-11-22T01:41:14.423Z,0
2022-11-22T01:42:15.017Z,0
2022-11-22T01:43:15.616Z,0
2022-11-22T01:44:16.226Z,0
2022-11-22T01:45:16.837Z,0
2022-11-22T01:46:17.428Z,0
2022-11-22T01:47:18.043Z,0
2022-11-22T01:48:18.650Z,0
2022-11-22T01:49:19.230Z,0
2022-11-22T01:50:19.853Z,0
2022-11-22T01:51:20.442Z,0
2022-11-22T01:52:21.084Z,0
2022-11-22T01:53:21.694Z,0
2022-11-22T01:54:22.285Z,0
2022-11-22T01:55:22.879Z,0
2022-11-22T01:56:23.469Z,0
2022-11-22T01:57:24.066Z,0
2022-11-22T01:58:24.660Z,0
2022-11-22T01:59:25.253Z,0
2022-11-22T02:00:25.849Z,0
2022-11-22T02:01:26.534Z,0
2022-11-22T02:02:27.102Z,0
2022-11-22T02:03:27.697Z,0
2022-11-22T02:04:28.290Z,0
2022-11-22T02:05:28.884Z,0
2022-11-22T02:06:29.476Z,0
2022-11-22T02:07:30.139Z,0
2022-11-22T02:08:30.682Z,0
2022-11-22T02:09:31.588Z,0
2022-11-22T02:10:32.423Z,0
2022-11-22T02:11:34.398Z,0
2022-11-22T02:12:34.626Z,0
2022-11-22T02:13:35.238Z,0
2022-11-22T02:14:35.832Z,0
2022-11-22T02:15:36.445Z,0
2022-11-22T02:16:37.045Z,0
2022-11-22T02:17:37.631Z,0
2022-11-22T02:18:38.275Z,0
2022-11-22T02:19:38.869Z,0
2022-11-22T02:20:39.462Z,0
2022-11-22T02:21:40.056Z,0
2022-11-22T02:22:40.651Z,0
2022-11-22T02:23:41.248Z,0
2022-11-22T02:24:41.843Z,0
2022-11-22T02:25:42.434Z,0
2022-11-22T02:26:43.029Z,0
2022-11-22T02:27:43.624Z,0
2022-11-22T02:28:44.219Z,0
2022-11-22T02:29:44.812Z,0
2022-11-22T02:30:45.407Z,0
2022-11-22T02:31:46.007Z,0
2022-11-22T02:32:46.591Z,0
2022-11-22T02:33:47.188Z,0
2022-11-22T02:34:47.780Z,0
2022-11-22T02:35:48.380Z,0
2022-11-22T02:36:48.968Z,0
2022-11-22T02:37:49.584Z,0
2022-11-22T02:38:50.176Z,0
2022-11-22T02:39:50.773Z,0
2022-11-22T02:40:51.381Z,0
2022-11-22T02:41:51.977Z,0
2022-11-22T02:42:52.568Z,0
2022-11-22T02:43:53.184Z,0
2022-11-22T02:44:53.779Z,0
2022-11-22T02:45:54.372Z,0
2022-11-22T02:46:54.966Z,0
2022-11-22T02:47:55.577Z,0
2022-11-22T02:48:56.169Z,0
2022-11-22T02:49:56.787Z,0
2022-11-22T02:50:57.379Z,0
2022-11-22T02:51:57.974Z,0
2022-11-22T02:52:58.566Z,0
2022-11-22T02:53:59.161Z,0
2022-11-22T02:54:59.753Z,0
2022-11-22T02:56:00.347Z,0
2022-11-22T02:57:00.941Z,0
2022-11-22T02:58:01.535Z,0
2022-11-22T02:59:02.128Z,0
2022-11-22T03:00:02.729Z,0
2022-11-22T03:01:03.382Z,0
2022-11-22T03:02:03.949Z,0
2022-11-22T03:03:04.560Z,0
2022-11-22T03:04:05.155Z,0
2022-11-22T03:05:05.746Z,0
2022-11-22T03:06:06.345Z,0
2022-11-22T03:07:07.003Z,0
2022-11-22T03:08:07.562Z,0
2022-11-22T03:09:08.155Z,0
2022-11-22T03:10:08.749Z,0
2022-11-22T03:11:09.342Z,0
2022-11-22T03:12:09.938Z,0
2022-11-22T03:13:10.528Z,0
2022-11-22T03:14:11.124Z,0
2022-11-22T03:15:11.737Z,0
2022-11-22T03:16:12.330Z,0
2022-11-22T03:17:12.920Z,0
2022-11-22T03:18:13.514Z,0
2022-11-22T03:19:14.113Z,0
2022-11-22T03:20:14.724Z,0
2022-11-22T03:21:15.315Z,0
2022-11-22T03:22:15.914Z,0
2022-11-22T03:23:16.507Z,0
2022-11-22T03:24:17.097Z,0
2022-11-22T03:25:17.688Z,0
2022-11-22T03:26:18.283Z,0
2022-11-22T03:27:18.876Z,0
2022-11-22T03:28:19.471Z,0
2022-11-22T03:29:20.083Z,0
2022-11-22T03:30:20.661Z,0
2022-11-22T03:31:21.257Z,0
2022-11-22T03:32:21.850Z,0
2022-11-22T03:33:22.443Z,0
2022-11-22T03:34:23.038Z,0
2022-11-22T03:35:23.630Z,0
2022-11-22T03:36:24.228Z,0
2022-11-22T03:37:24.838Z,0
2022-11-22T03:38:25.433Z,0
2022-11-22T03:39:26.027Z,0
2022-11-22T03:40:26.627Z,0
2022-11-22T03:41:27.215Z,0
2022-11-22T03:42:27.812Z,0
2022-11-22T03:43:28.405Z,0
2022-11-22T03:44:28.999Z,0
2022-11-22T03:45:29.605Z,0
2022-11-22T03:46:30.193Z,0
2022-11-22T03:47:30.778Z,0
2022-11-22T03:48:31.375Z,0
2022-11-22T03:49:32.492Z,0
2022-11-22T03:50:33.245Z,0
2022-11-22T03:51:33.837Z,0
2022-11-22T03:52:34.429Z,0
2022-11-22T03:53:35.020Z,0
2022-11-22T03:54:35.614Z,0
2022-11-22T03:55:36.211Z,0
2022-11-22T03:56:36.803Z,0
2022-11-22T03:57:37.416Z,0
2022-11-22T03:58:38.013Z,0
2022-11-22T03:59:38.605Z,0
2022-11-22T04:00:39.201Z,0
2022-11-22T04:01:39.895Z,0
2022-11-22T04:02:40.424Z,0
2022-11-22T04:03:41.017Z,0
2022-11-22T04:04:41.612Z,0
2022-11-22T04:05:42.227Z,0
2022-11-22T04:06:42.823Z,0
2022-11-22T04:07:43.486Z,0
2022-11-22T04:08:44.064Z,0
2022-11-22T04:09:44.635Z,0
2022-11-22T04:10:45.228Z,0
2022-11-22T04:11:45.827Z,0
2022-11-22T04:12:46.437Z,0
2022-11-22T04:13:47.034Z,0
2022-11-22T04:14:47.644Z,0
2022-11-22T04:15:48.239Z,0
2022-11-22T04:16:48.851Z,0
2022-11-22T04:17:49.464Z,0
2022-11-22T04:18:50.061Z,0
2022-11-22T04:19:50.675Z,0
2022-11-22T04:20:51.268Z,0
2022-11-22T04:21:51.861Z,0
2022-11-22T04:22:52.455Z,0
2022-11-22T04:23:53.045Z,0
2022-11-22T04:24:53.639Z,0
2022-11-22T04:25:54.230Z,0
2022-11-22T04:26:54.845Z,0
2022-11-22T04:27:55.438Z,0
2022-11-22T04:29:09.160Z,0
2022-11-22T04:29:57.619Z,0
2022-11-22T04:30:58.241Z,0
2022-11-22T04:31:58.826Z,0
2022-11-22T04:32:59.423Z,0
2022-11-22T04:34:00.013Z,0
2022-11-22T04:35:00.624Z,0
2022-11-22T04:36:01.238Z,0
2022-11-22T04:37:01.836Z,0
2022-11-22T04:38:02.432Z,0
2022-11-22T04:39:03.045Z,0
2022-11-22T04:40:03.633Z,0
2022-11-22T04:41:04.226Z,0
2022-11-22T04:42:04.821Z,0
2022-11-22T04:43:05.413Z,0
2022-11-22T04:44:06.006Z,0
2022-11-22T04:45:06.600Z,0
2022-11-22T04:46:07.196Z,0
2022-11-22T04:47:07.789Z,0
2022-11-22T04:48:08.402Z,0
2022-11-22T04:49:09.003Z,0
2022-11-22T04:50:09.590Z,0
2022-11-22T04:51:10.187Z,0
2022-11-22T04:52:10.795Z,0
2022-11-22T04:53:11.370Z,0
2022-11-22T04:54:11.971Z,0
2022-11-22T04:55:12.560Z,0
2022-11-22T04:56:13.154Z,0
2022-11-22T04:57:13.749Z,0
2022-11-22T04:58:14.344Z,0
2022-11-22T04:59:14.938Z,0
2022-11-22T05:00:15.533Z,0
2022-11-22T05:01:16.166Z,0
2022-11-22T05:02:16.731Z,0
2022-11-22T05:03:17.325Z,0
2022-11-22T05:04:17.915Z,0
2022-11-22T05:05:18.514Z,0
2022-11-22T05:06:19.101Z,0
2022-11-22T05:07:19.695Z,0
2022-11-22T05:08:20.293Z,0
2022-11-22T05:09:20.896Z,0
2022-11-22T05:10:26.471Z,0
2022-11-22T05:11:23.064Z,0
2022-11-22T05:12:23.658Z,0
2022-11-22T05:13:24.272Z,0
2022-11-22T05:14:24.865Z,0
2022-11-22T05:15:25.458Z,0
2022-11-22T05:16:26.053Z,0
2022-11-22T05:17:26.648Z,0
2022-11-22T05:18:27.243Z,0
2022-11-22T05:19:27.952Z,0
2022-11-22T05:20:28.446Z,0
2022-11-22T05:21:29.039Z,0
2022-11-22T05:22:29.634Z,0
2022-11-22T05:23:30.229Z,0
2022-11-22T05:24:30.823Z,0
2022-11-22T05:25:31.417Z,0
2022-11-22T05:26:32.011Z,0
2022-11-22T05:27:32.605Z,0
2022-11-22T05:28:33.201Z,0
2022-11-22T05:29:33.794Z,0
2022-11-22T05:30:34.388Z,0
2022-11-22T05:31:34.982Z,0
2022-11-22T05:32:35.579Z,0
2022-11-22T05:33:36.189Z,0
2022-11-22T05:34:36.787Z,0
2022-11-22T05:35:37.378Z,0
2022-11-22T05:36:37.973Z,0
2022-11-22T05:37:38.568Z,0
2022-11-22T05:38:39.163Z,0
2022-11-22T05:39:39.756Z,0
2022-11-22T05:40:40.354Z,0
2022-11-22T05:41:40.997Z,0
2022-11-22T05:42:41.609Z,0
2022-11-22T05:43:42.205Z,0
2022-11-22T05:44:42.801Z,0
2022-11-22T05:45:43.404Z,0
2022-11-22T05:46:43.993Z,0
2022-11-22T05:47:44.586Z,0
2022-11-22T05:48:45.196Z,0
2022-11-22T05:49:45.790Z,0
2022-11-22T05:50:46.382Z,0
2022-11-22T05:51:46.977Z,0
2022-11-22T05:52:47.570Z,0
2022-11-22T05:53:48.170Z,0
2022-11-22T05:54:48.760Z,0
2022-11-22T05:55:49.352Z,0
2022-11-22T05:56:49.947Z,0
2022-11-22T05:57:50.538Z,0
2022-11-22T05:58:51.132Z,0
2022-11-22T05:59:51.723Z,0
2022-11-22T06:00:52.360Z,0
2022-11-22T06:01:52.981Z,0
2022-11-22T06:02:53.531Z,0
2022-11-22T06:03:54.130Z,0
2022-11-22T06:04:54.716Z,0
2022-11-22T06:05:55.326Z,0
2022-11-22T06:06:55.920Z,0
2022-11-22T06:07:56.576Z,0
2022-11-22T06:08:57.115Z,0
2022-11-22T06:09:57.708Z,0
2022-11-22T06:10:58.301Z,0
2022-11-22T06:11:58.895Z,0
2022-11-22T06:12:59.512Z,0
2022-11-22T06:14:00.124Z,0
2022-11-22T06:15:00.716Z,0
2022-11-22T06:16:01.310Z,0
2022-11-22T06:17:01.904Z,0
2022-11-22T06:18:02.496Z,0
2022-11-22T06:19:03.116Z,0
2022-11-22T06:20:06.417Z,0
2022-11-22T06:21:05.290Z,0
2022-11-22T06:22:05.884Z,0
2022-11-22T06:23:06.499Z,0
2022-11-22T06:24:07.093Z,0
2022-11-22T06:25:07.688Z,0
2022-11-22T06:26:08.279Z,0
2022-11-22T06:27:08.896Z,0
2022-11-22T06:28:09.485Z,0
2022-11-22T06:29:10.099Z,0
2022-11-22T06:30:10.691Z,0
2022-11-22T06:31:11.285Z,0
2022-11-22T06:32:11.887Z,0
2022-11-22T06:33:12.476Z,0
2022-11-22T06:34:13.069Z,0
2022-11-22T06:35:13.664Z,0
2022-11-22T06:36:14.259Z,0
2022-11-22T06:37:14.880Z,0
2022-11-22T06:38:15.472Z,0
2022-11-22T06:39:16.069Z,0
2022-11-22T06:40:16.664Z,0
2022-11-22T06:41:17.259Z,0
2022-11-22T06:42:17.972Z,0
2022-11-22T06:43:18.543Z,0
2022-11-22T06:44:19.122Z,0
2022-11-22T06:45:19.718Z,0
2022-11-22T06:46:20.314Z,0
2022-11-22T06:47:20.907Z,0
2022-11-22T06:48:21.504Z,0
2022-11-22T06:49:22.098Z,0
2022-11-22T06:50:22.696Z,0
2022-11-22T06:51:23.290Z,5
2022-11-22T06:52:23.887Z,5
2022-11-22T06:53:45.740Z,5
2022-11-22T06:54:26.073Z,5
2022-11-22T06:55:49.615Z,5
2022-11-22T06:56:28.149Z,5
2022-11-22T06:57:28.747Z,5
2022-11-22T06:58:29.344Z,5
2022-11-22T06:59:30.213Z,5
2022-11-22T07:00:30.870Z,5
2022-11-22T07:01:31.580Z,5
2022-11-22T07:02:32.151Z,5
2022-11-22T07:03:32.767Z,5
2022-11-22T07:04:33.362Z,5
2022-11-22T07:05:33.959Z,5
2022-11-22T07:06:34.566Z,11
2022-11-22T07:07:35.209Z,11
2022-11-22T07:08:35.769Z,11
2022-11-22T07:09:36.363Z,11
2022-11-22T07:10:36.960Z,11
2022-11-22T07:11:37.560Z,16
2022-11-22T07:12:38.176Z,16
2022-11-22T07:13:38.772Z,16
2022-11-22T07:14:39.370Z,16
2022-11-22T07:15:39.971Z,16
2022-11-22T07:16:40.568Z,16
2022-11-22T07:17:41.195Z,16
2022-11-22T07:18:41.790Z,16
2022-11-22T07:19:42.392Z,22
2022-11-22T07:20:43.011Z,22
2022-11-22T07:21:43.604Z,22
2022-11-22T07:22:44.200Z,28
2022-11-22T07:23:44.806Z,28
2022-11-22T07:24:45.392Z,33
2022-11-22T07:25:45.991Z,39
2022-11-22T07:26:46.590Z,45
2022-11-22T07:27:47.183Z,45
2022-11-22T07:28:47.780Z,45
2022-11-22T07:29:48.380Z,45
2022-11-22T07:30:48.992Z,50
2022-11-22T07:31:49.572Z,56
2022-11-22T07:32:50.165Z,61
2022-11-22T07:33:50.763Z,61
2022-11-22T07:34:51.360Z,67
2022-11-22T07:35:51.960Z,67
2022-11-22T07:36:58.648Z,67
2022-11-22T07:37:54.149Z,61
2022-11-22T07:38:54.748Z,67
2022-11-22T07:39:55.347Z,78
2022-11-22T07:40:55.944Z,84
2022-11-22T07:41:56.541Z,84
2022-11-22T07:42:58.476Z,90
2022-11-22T07:43:58.733Z,101
2022-11-22T07:44:59.354Z,112
2022-11-22T07:45:59.949Z,123
2022-11-22T07:47:00.549Z,135
2022-11-22T07:48:01.153Z,151
2022-11-22T07:49:01.768Z,163
2022-11-22T07:50:02.344Z,174
2022-11-22T07:51:02.962Z,191
2022-11-22T07:52:03.593Z,202
2022-11-22T07:53:04.182Z,213
2022-11-22T07:54:04.781Z,225
2022-11-22T07:55:09.680Z,225
2022-11-22T07:56:06.971Z,230
2022-11-22T07:57:07.571Z,241
2022-11-22T07:58:08.194Z,247
2022-11-22T07:59:08.792Z,253
2022-11-22T08:00:09.387Z,258
2022-11-22T08:01:10.061Z,264
2022-11-22T08:02:10.793Z,281
2022-11-22T08:03:15.609Z,286
2022-11-22T08:04:12.846Z,292
2022-11-22T08:05:13.473Z,298
2022-11-22T08:06:14.066Z,303
2022-11-22T08:07:14.676Z,309
2022-11-22T08:08:15.266Z,309
2022-11-22T08:09:15.879Z,309
2022-11-22T08:10:16.480Z,309
2022-11-22T08:11:17.097Z,309
2022-11-22T08:12:17.699Z,315
2022-11-22T08:13:18.298Z,320
2022-11-22T08:14:18.897Z,320
2022-11-22T08:15:19.499Z,320
2022-11-22T08:16:20.096Z,326
2022-11-22T08:17:20.768Z,326
2022-11-22T08:18:21.307Z,320
2022-11-22T08:19:21.905Z,326
2022-11-22T08:20:22.504Z,331
2022-11-22T08:21:23.107Z,343
2022-11-22T08:22:23.704Z,348
2022-11-22T08:23:24.306Z,354
2022-11-22T08:24:24.904Z,360
2022-11-22T08:25:25.507Z,360
2022-11-22T08:26:26.118Z,360
2022-11-22T08:27:26.716Z,360
2022-11-22T08:28:27.320Z,360
2022-11-22T08:29:28.096Z,360
2022-11-22T08:30:28.767Z,376
2022-11-22T08:31:29.365Z,410
2022-11-22T08:32:30.049Z,450
2022-11-22T08:33:30.579Z,461
2022-11-22T08:34:31.181Z,455
2022-11-22T08:35:31.780Z,466
2022-11-22T08:36:32.380Z,472
2022-11-22T08:37:33.009Z,483
2022-11-22T08:38:33.619Z,495
2022-11-22T08:39:34.218Z,495
2022-11-22T08:40:40.719Z,489
2022-11-22T08:41:36.408Z,506
2022-11-22T08:42:37.013Z,511
2022-11-22T08:43:37.608Z,517
2022-11-22T08:44:38.209Z,506
2022-11-22T08:45:38.809Z,495
2022-11-22T08:46:39.408Z,483
2022-11-22T08:47:40.073Z,478
2022-11-22T08:48:40.629Z,500
2022-11-22T08:49:41.242Z,545
2022-11-22T08:50:41.853Z,585
2022-11-22T08:51:42.444Z,607
2022-11-22T08:52:43.042Z,601
2022-11-22T08:53:43.636Z,601
2022-11-22T08:54:44.237Z,613
2022-11-22T08:55:44.830Z,787
2022-11-22T08:56:45.429Z,753
2022-11-22T08:57:46.025Z,770
2022-11-22T08:58:46.652Z,815
2022-11-22T08:59:47.298Z,916
2022-11-22T09:00:47.854Z,1001
2022-11-22T09:01:48.519Z,956
2022-11-22T09:02:49.134Z,1035
2022-11-22T09:03:49.671Z,1085
2022-11-22T09:04:50.272Z,1023
2022-11-22T09:09:15.266Z,1136
2022-11-22T09:09:57.246Z,1147
2022-11-22T09:10:57.845Z,1108
2022-11-22T09:11:58.462Z,1085
2022-11-22T09:12:59.063Z,1001
2022-11-22T09:13:59.659Z,911
2022-11-22T09:15:00.257Z,956
2022-11-22T09:16:00.876Z,1012
2022-11-22T09:17:01.479Z,950
2022-11-22T09:18:02.138Z,1057
2022-11-22T09:19:02.685Z,1091
2022-11-22T09:20:03.281Z,1085
2022-11-22T09:21:03.881Z,905
2022-11-22T09:22:04.479Z,1102
2022-11-22T09:23:05.079Z,1147
2022-11-22T09:24:05.676Z,1192
2022-11-22T09:25:06.273Z,1186
2022-11-22T09:26:06.869Z,1141
2022-11-22T09:27:07.467Z,1260
2022-11-22T09:28:08.065Z,1260
2022-11-22T09:29:08.664Z,990
2022-11-22T09:30:09.260Z,1265
2022-11-22T09:31:09.864Z,1102
2022-11-22T09:32:10.457Z,1119
2022-11-22T09:33:11.126Z,978
2022-11-22T09:34:11.665Z,1046
2022-11-22T09:35:12.282Z,1113
2022-11-22T09:36:12.883Z,1040
2022-11-22T09:37:13.478Z,1096
2022-11-22T09:38:14.079Z,1170
2022-11-22T09:39:14.674Z,1057
2022-11-22T09:40:15.271Z,1040
2022-11-22T09:41:15.872Z,1085
2022-11-22T09:42:16.490Z,1192
2022-11-22T09:43:17.087Z,1237
2022-11-22T09:44:17.685Z,1215
2022-11-22T09:45:18.301Z,1248
2022-11-22T09:46:18.900Z,1164
2022-11-22T09:47:19.498Z,1068
2022-11-22T09:48:20.191Z,1119
2022-11-22T09:49:20.728Z,1040
2022-11-22T09:50:21.326Z,967
2022-11-22T09:51:21.920Z,1001
2022-11-22T09:52:22.520Z,1018
2022-11-22T09:53:23.134Z,1130
2022-11-22T09:54:23.733Z,1068
2022-11-22T09:55:24.601Z,1012
2022-11-22T09:56:25.184Z,1074
2022-11-22T09:57:25.796Z,1136
2022-11-22T09:58:26.396Z,1192
2022-11-22T09:59:27.065Z,1175
2022-11-22T10:00:27.608Z,1220
2022-11-22T10:01:28.286Z,1074
2022-11-22T10:02:28.876Z,939
2022-11-22T10:03:29.566Z,843
2022-11-22T10:04:30.102Z,995
2022-11-22T10:05:30.700Z,1080
2022-11-22T10:06:31.300Z,1108
2022-11-22T10:07:31.978Z,1102
2022-11-22T10:08:32.582Z,1220
2022-11-22T10:09:33.431Z,1378
2022-11-22T10:10:34.175Z,1355
2022-11-22T10:11:36.597Z,1473
2022-11-22T10:12:36.363Z,1327
2022-11-22T10:13:36.959Z,1485
2022-11-22T10:14:37.561Z,1580
2022-11-22T10:15:38.173Z,1355
2022-11-22T10:16:38.756Z,1271
2022-11-22T10:17:39.357Z,1321
2022-11-22T10:18:40.050Z,1288
2022-11-22T10:19:40.586Z,1248
2022-11-22T10:20:45.708Z,1226
2022-11-22T10:21:42.773Z,1383
2022-11-22T10:22:43.373Z,1299
2022-11-22T10:23:43.972Z,1316
2022-11-22T10:24:44.574Z,1485
2022-11-22T10:25:45.167Z,1215
2022-11-22T10:26:45.795Z,1158
2022-11-22T10:27:46.386Z,1175
2022-11-22T10:28:47.004Z,1153
2022-11-22T10:29:47.601Z,1243
2022-11-22T10:30:48.198Z,1057
2022-11-22T10:31:48.795Z,945
2022-11-22T10:32:49.393Z,1226
2022-11-22T10:33:50.062Z,1243
2022-11-22T10:34:50.604Z,1057
2022-11-22T10:35:51.197Z,787
2022-11-22T10:36:51.794Z,990
2022-11-22T10:37:52.394Z,888
2022-11-22T10:38:52.990Z,832
2022-11-22T10:39:53.607Z,1029
2022-11-22T10:40:54.210Z,1507
2022-11-22T10:41:54.801Z,1608
2022-11-22T10:42:55.399Z,1395
2022-11-22T10:43:55.995Z,1749
2022-11-22T10:44:56.613Z,1608
2022-11-22T10:45:57.211Z,1451
2022-11-22T10:46:57.811Z,1428
2022-11-22T10:47:58.409Z,1597
2022-11-22T10:48:59.081Z,1558
2022-11-22T10:49:59.621Z,1563
2022-11-22T10:51:00.222Z,1541
2022-11-22T10:52:00.819Z,1333
2022-11-22T10:53:01.417Z,1226
2022-11-22T10:54:03.726Z,1355
2022-11-22T10:55:03.608Z,1198
2022-11-22T10:56:04.207Z,1231
2022-11-22T10:57:04.806Z,1096
2022-11-22T10:58:05.401Z,1473
2022-11-22T10:59:06.002Z,1541
2022-11-22T11:00:06.597Z,1479
2022-11-22T11:01:07.282Z,1428
2022-11-22T11:02:07.895Z,1563
2022-11-22T11:03:08.495Z,1344
2022-11-22T11:04:09.138Z,1355
2022-11-22T11:05:09.739Z,1260
2022-11-22T11:06:43.164Z,1366
2022-11-22T11:07:12.915Z,1282
2022-11-22T11:08:39.182Z,1299
2022-11-22T11:10:27.510Z,1563
2022-11-22T11:11:18.291Z,1726
2022-11-22T11:12:18.887Z,1451
2022-11-22T11:13:19.487Z,1681
2022-11-22T11:14:20.084Z,1417
2022-11-22T11:15:20.682Z,1366
2022-11-22T11:16:21.281Z,1451
2022-11-22T11:17:21.880Z,1681
2022-11-22T11:18:22.480Z,1558
2022-11-22T11:19:23.149Z,1890
2022-11-22T11:20:23.690Z,1890
2022-11-22T11:21:24.289Z,1760
2022-11-22T11:22:51.530Z,1440
2022-11-22T11:23:26.480Z,1293
2022-11-22T11:24:27.144Z,1530
2022-11-22T11:25:27.811Z,1665
2022-11-22T11:26:28.407Z,1355
2022-11-22T11:27:29.005Z,1591
2022-11-22T11:28:29.601Z,1895
2022-11-22T11:29:34.556Z,1389
2022-11-22T11:30:31.791Z,1591
2022-11-22T11:31:32.389Z,1929
2022-11-22T11:32:33.008Z,1760
2022-11-22T11:33:33.611Z,1794
2022-11-22T11:34:34.274Z,1603
2022-11-22T11:35:34.814Z,2064
2022-11-22T11:36:35.413Z,2013
2022-11-22T11:37:36.012Z,1681
2022-11-22T11:38:36.628Z,1923
2022-11-22T11:39:41.948Z,2030
2022-11-22T11:40:38.818Z,1693
2022-11-22T11:41:43.388Z,1777
2022-11-22T11:42:41.009Z,2041
2022-11-22T11:43:41.627Z,2047
2022-11-22T11:44:42.227Z,2115
2022-11-22T11:45:42.827Z,2143
2022-11-22T11:46:43.424Z,2058
2022-11-22T11:47:44.024Z,1575
2022-11-22T11:48:44.618Z,2047
2022-11-22T11:49:45.288Z,1513
2022-11-22T11:50:45.830Z,1918
2022-11-22T11:51:46.461Z,2041
2022-11-22T11:52:47.059Z,1901
2022-11-22T11:53:47.659Z,1417
2022-11-22T11:54:48.255Z,1890
2022-11-22T11:55:48.857Z,1625
2022-11-22T11:56:49.453Z,1850
2022-11-22T11:57:50.051Z,1980
2022-11-22T11:58:50.649Z,1968
2022-11-22T11:59:51.246Z,2019
2022-11-22T12:00:51.846Z,1884
2022-11-22T12:01:52.485Z,1597
2022-11-22T12:02:53.088Z,1985
2022-11-22T12:03:53.677Z,1850
2022-11-22T12:04:54.342Z,658
2022-11-22T12:05:54.892Z,2008
2022-11-22T12:06:58.806Z,1265
2022-11-22T12:07:57.138Z,1856
2022-11-22T12:08:57.703Z,1636
2022-11-22T12:09:58.301Z,1732
2022-11-22T12:10:58.898Z,1771
2022-11-22T12:11:59.498Z,1665
2022-11-22T12:13:04.193Z,1681
2022-11-22T12:14:19.484Z,1861
2022-11-22T12:15:11.242Z,1884
2022-11-22T12:16:04.761Z,1659
2022-11-22T12:17:05.360Z,1586
2022-11-22T12:18:05.957Z,1524
2022-11-22T12:19:06.556Z,1636
2022-11-22T12:20:07.233Z,1468
2022-11-22T12:21:07.773Z,1485
2022-11-22T12:22:08.368Z,1614
2022-11-22T12:23:08.966Z,1794
2022-11-22T12:24:34.919Z,1676
2022-11-22T12:25:31.549Z,1608
2022-11-22T12:26:12.747Z,1001
2022-11-22T12:27:13.344Z,1479
2022-11-22T12:28:13.946Z,1715
2022-11-22T12:29:14.550Z,1681
2022-11-22T12:30:15.142Z,1822
2022-11-22T12:31:15.740Z,1659
2022-11-22T12:32:16.339Z,1479
2022-11-22T12:33:16.936Z,1822
2022-11-22T12:34:17.535Z,1271
2022-11-22T12:35:18.206Z,1710
2022-11-22T12:36:18.743Z,1940
2022-11-22T12:37:19.342Z,1316
2022-11-22T12:38:19.940Z,1591
2022-11-22T12:39:20.539Z,1226
2022-11-22T12:40:21.154Z,641
2022-11-22T12:41:21.750Z,950
2022-11-22T12:42:23.398Z,669
2022-11-22T12:43:23.939Z,652
2022-11-22T12:44:24.557Z,1625
2022-11-22T12:45:25.155Z,1828
2022-11-22T12:46:26.282Z,1670
2022-11-22T12:47:27.033Z,1760
2022-11-22T12:48:27.867Z,736
2022-11-22T12:49:28.625Z,1434
2022-11-22T12:50:29.300Z,1580
2022-11-22T12:51:29.836Z,1141
2022-11-22T12:52:30.440Z,1586
2022-11-22T12:53:31.034Z,1569
2022-11-22T12:54:31.972Z,590
2022-11-22T12:55:32.818Z,511
2022-11-22T12:56:34.196Z,540
2022-11-22T12:57:34.807Z,1552
2022-11-22T12:58:35.415Z,1743
2022-11-22T12:59:36.002Z,1805
2022-11-22T13:00:36.623Z,1856
2022-11-22T13:01:37.319Z,1828
2022-11-22T13:02:37.923Z,1423
2022-11-22T13:03:38.519Z,871
2022-11-22T13:04:39.118Z,838
2022-11-22T13:05:39.787Z,1681
2022-11-22T13:06:40.327Z,1698
2022-11-22T13:07:41.000Z,1620
2022-11-22T13:08:41.567Z,838
2022-11-22T13:09:42.159Z,556
2022-11-22T13:10:42.758Z,765
2022-11-22T13:11:43.351Z,1659
2022-11-22T13:12:43.948Z,973
2022-11-22T13:13:44.543Z,894
2022-11-22T13:14:45.141Z,641
2022-11-22T13:15:45.738Z,776
2022-11-22T13:16:46.339Z,1434
2022-11-22T13:17:46.932Z,1299
2022-11-22T13:18:47.531Z,590
2022-11-22T13:19:48.126Z,1411
2022-11-22T13:20:48.795Z,461
2022-11-22T13:21:49.335Z,433
2022-11-22T13:22:49.930Z,365
2022-11-22T13:23:50.528Z,776
2022-11-22T13:24:51.126Z,905
2022-11-22T13:25:51.726Z,1355
2022-11-22T13:26:52.322Z,517
2022-11-22T13:27:52.917Z,472
2022-11-22T13:28:53.513Z,495
2022-11-22T13:29:54.109Z,585
2022-11-22T13:30:54.708Z,776
2022-11-22T13:31:55.301Z,708
2022-11-22T13:32:55.899Z,523
2022-11-22T13:33:56.496Z,545
2022-11-22T13:34:57.113Z,1130
2022-11-22T13:35:57.710Z,461
2022-11-22T13:37:01.833Z,421
2022-11-22T13:37:59.896Z,382
2022-11-22T13:39:00.499Z,376
2022-11-22T13:40:01.093Z,573
2022-11-22T13:41:01.691Z,1108
2022-11-22T13:42:02.289Z,466
2022-11-22T13:43:02.886Z,393
2022-11-22T13:44:03.481Z,326
2022-11-22T13:45:04.078Z,303
2022-11-22T13:46:04.672Z,303
2022-11-22T13:47:05.268Z,298
2022-11-22T13:48:05.866Z,286
2022-11-22T13:49:06.461Z,264
2022-11-22T13:50:07.097Z,264
2022-11-22T13:51:07.747Z,275
2022-11-22T13:52:08.285Z,270
2022-11-22T13:53:08.884Z,247
2022-11-22T13:54:09.511Z,225
2022-11-22T13:55:15.095Z,202
2022-11-22T13:56:11.673Z,191
2022-11-22T13:57:12.318Z,213
2022-11-22T13:58:12.921Z,241
2022-11-22T13:59:13.519Z,286
2022-11-22T14:00:14.124Z,303
2022-11-22T14:01:14.766Z,281
2022-11-22T14:02:15.351Z,247
2022-11-22T14:03:15.955Z,202
2022-11-22T14:04:16.551Z,191
2022-11-22T14:05:17.142Z,180
2022-11-22T14:06:17.807Z,174
2022-11-22T14:07:18.353Z,157
2022-11-22T14:08:18.941Z,146
2022-11-22T14:09:19.558Z,129
2022-11-22T14:10:20.156Z,123
2022-11-22T14:11:20.773Z,118
2022-11-22T14:12:21.391Z,112
2022-11-22T14:13:21.988Z,112
2022-11-22T14:14:22.587Z,118
2022-11-22T14:15:23.188Z,112
2022-11-22T14:16:23.779Z,106
2022-11-22T14:17:24.376Z,106
2022-11-22T14:18:24.974Z,106
2022-11-22T14:19:25.569Z,106
2022-11-22T14:20:26.169Z,101
2022-11-22T14:21:26.849Z,95